Welton, Iowa
Current Conditions -  °F | °C
As of 11:15 AM on Sunday 21 Dec 2014 (Local Time) from KCWI Reporting Station
Overcast Overcast  
Wind Chill: 29°   Ceiling: 2300
Heat Index: 37°   Visibility: 10mi
Dew Point: 34°   Wind: 13mph
Humidity: 87%   Direction: 180°S
Pressure: 30.1"   Gusts: NA
Location:  41.91°N, 90.6°W
Report Text: KCWI 211715Z AUTO 18011KT 10SM OVC023 03/01 A3010 RMK AO1
Loading
Personal Weather Stations






























Interactive Weather Map New forecast layout! Learn more

10-Day Weather Forecast

Advertisements
Track Severe Weather on mobile